createdAt,value
2023-01-02T00:05:37.196Z,6.80
2023-01-02T00:08:04.272Z,6.70
2023-01-02T00:10:31.486Z,6.70
2023-01-02T00:12:58.379Z,6.70
2023-01-02T00:15:25.663Z,6.70
2023-01-02T00:17:52.823Z,6.60
2023-01-02T00:20:20.039Z,6.60
2023-01-02T00:22:47.954Z,6.60
2023-01-02T00:40:19.346Z,6.40
2023-01-02T00:47:54.690Z,6.30
2023-01-02T00:50:21.905Z,6.30
2023-01-02T00:52:49.097Z,6.30
2023-01-02T00:55:17.263Z,6.30
2023-01-02T00:57:44.620Z,6.20
2023-01-02T01:00:14.816Z,6.20
2023-01-02T01:02:45.506Z,6.20
2023-01-02T01:05:12.887Z,6.20
2023-01-02T01:07:39.900Z,6.10
2023-01-02T01:10:07.828Z,6.10
2023-01-02T01:12:34.846Z,6.00
2023-01-02T01:15:02.055Z,5.90
2023-01-02T01:17:29.445Z,5.90
2023-01-02T01:19:56.565Z,5.90
2023-01-02T01:22:23.759Z,5.90
2023-01-02T01:45:51.033Z,5.80
2023-01-02T01:48:19.384Z,5.80
2023-01-02T01:50:46.467Z,5.80
2023-01-02T01:53:21.853Z,5.70
2023-01-02T01:55:55.715Z,5.70
2023-01-02T01:58:30.046Z,5.80
2023-01-02T02:00:57.424Z,5.70
2023-01-02T02:03:30.583Z,5.70
2023-01-02T02:06:00.697Z,5.70
2023-01-02T02:08:55.595Z,5.70
2023-01-02T02:32:38.644Z,5.70
2023-01-02T02:35:30.413Z,5.60
2023-01-02T02:38:22.932Z,5.60
2023-01-02T02:41:11.859Z,5.60
2023-01-02T02:44:14.122Z,5.60
2023-01-02T02:47:05.786Z,5.60
2023-01-02T02:49:59.023Z,5.60
2023-01-02T02:52:34.374Z,5.60
2023-01-02T02:55:27.631Z,5.60
2023-01-02T02:58:00.196Z,5.60
2023-01-02T03:00:27.343Z,5.60
2023-01-02T03:02:55.258Z,5.50
2023-01-02T03:05:37.566Z,5.50
2023-01-02T03:08:33.610Z,5.50
2023-01-02T03:11:03.495Z,5.50
2023-01-02T03:14:00.576Z,5.50
2023-01-02T03:16:42.028Z,5.40
2023-01-02T03:19:18.916Z,5.40
2023-01-02T03:22:14.979Z,5.40
2023-01-02T03:24:45.885Z,5.30
2023-01-02T03:27:23.895Z,5.30
2023-01-02T03:30:04.015Z,5.30
2023-01-02T03:32:44.117Z,5.30
2023-01-02T03:35:18.122Z,5.30
2023-01-02T03:37:54.523Z,5.30
2023-01-02T03:40:44.452Z,5.20
2023-01-02T03:43:21.251Z,5.20
2023-01-02T03:46:13.852Z,5.20
2023-01-02T03:48:51.654Z,5.20
2023-01-02T03:51:19.707Z,5.20
2023-01-02T03:53:50.050Z,5.20
2023-01-02T03:56:55.829Z,5.20
2023-01-02T03:59:44.660Z,5.20
2023-01-02T04:03:10.869Z,5.20
2023-01-02T04:05:49.913Z,5.10
2023-01-02T04:08:36.480Z,5.10
2023-01-02T04:11:06.547Z,5.10
2023-01-02T04:13:44.230Z,5.10
2023-01-02T04:16:20.435Z,5.10
2023-01-02T04:19:14.019Z,5.10
2023-01-02T04:21:43.327Z,5.10
2023-01-02T04:24:19.581Z,5.10
2023-01-02T04:27:03.948Z,5.10
2023-01-02T04:29:32.030Z,5.10
2023-01-02T04:32:10.920Z,5.10
2023-01-02T04:34:41.561Z,5.10
2023-01-02T04:37:08.507Z,5.00
2023-01-02T04:39:38.753Z,5.10
2023-01-02T04:42:06.041Z,5.00
2023-01-02T04:44:33.224Z,5.00
2023-01-02T04:47:02.310Z,5.00
2023-01-02T04:49:30.403Z,5.00
2023-01-02T04:51:57.293Z,5.00
2023-01-02T04:54:24.463Z,5.00
2023-01-02T04:56:51.360Z,5.00
2023-01-02T04:59:18.495Z,5.00
2023-01-02T05:01:45.535Z,5.00
2023-01-02T05:04:13.511Z,4.90
2023-01-02T05:06:40.463Z,4.90
2023-01-02T05:09:08.000Z,4.90
2023-01-02T05:11:35.009Z,4.90
2023-01-02T05:14:07.156Z,4.90
2023-01-02T05:16:35.149Z,4.90
2023-01-02T05:19:02.539Z,4.90
2023-01-02T05:21:48.259Z,4.90
2023-01-02T05:24:16.337Z,4.90
2023-01-02T05:26:43.246Z,4.90
2023-01-02T05:29:10.495Z,4.90
2023-01-02T05:31:37.704Z,4.90
2023-01-02T05:34:05.076Z,4.90
2023-01-02T05:36:31.994Z,4.90
2023-01-02T05:38:59.416Z,4.90
2023-01-02T05:41:26.300Z,4.90
2023-01-02T05:43:54.945Z,4.80
2023-01-02T05:46:22.019Z,4.80
2023-01-02T05:48:49.335Z,4.80
2023-01-02T05:51:17.919Z,4.80
2023-01-02T05:53:45.471Z,4.80
2023-01-02T05:56:16.413Z,4.80
2023-01-02T05:58:47.970Z,4.80
2023-01-02T06:01:19.024Z,4.80
2023-01-02T06:03:53.238Z,4.80
2023-01-02T06:06:24.515Z,4.80
2023-01-02T06:08:52.204Z,4.80
2023-01-02T06:11:19.261Z,4.70
2023-01-02T06:13:46.457Z,4.70
2023-01-02T06:16:13.599Z,4.80
2023-01-02T06:18:40.999Z,4.70
2023-01-02T06:21:15.495Z,4.70
2023-01-02T06:23:43.949Z,4.70
2023-01-02T06:26:21.700Z,4.70
2023-01-02T06:28:57.387Z,4.70
2023-01-02T06:31:27.846Z,4.70
2023-01-02T06:34:01.280Z,4.70
2023-01-02T06:36:34.285Z,4.70
2023-01-02T06:39:02.489Z,4.70
2023-01-02T06:41:30.011Z,4.70
2023-01-02T06:43:57.198Z,4.70
2023-01-02T06:46:24.671Z,4.70
2023-01-02T06:48:52.279Z,4.60
2023-01-02T06:51:23.328Z,4.70
2023-01-02T06:53:51.508Z,4.60
2023-01-02T06:56:20.885Z,4.60
2023-01-02T06:58:48.894Z,4.60
2023-01-02T07:01:19.932Z,4.60
2023-01-02T07:03:48.404Z,4.60
2023-01-02T07:15:56.764Z,4.60
2023-01-02T07:18:23.794Z,4.60
2023-01-02T07:25:24.404Z,4.60
2023-01-02T07:27:51.339Z,4.60
2023-01-02T08:12:04.936Z,4.60
2023-01-02T08:29:02.520Z,4.60
2023-01-02T08:31:29.861Z,4.60
2023-01-02T08:33:56.818Z,4.60
2023-01-02T08:36:24.157Z,4.60
2023-01-02T08:38:51.132Z,4.60
2023-01-02T08:41:37.889Z,4.60
2023-01-02T08:44:06.471Z,4.60
2023-01-02T08:46:42.237Z,4.60
2023-01-02T10:21:54.511Z,5.80
2023-01-02T10:24:59.092Z,5.90
2023-01-02T10:27:39.855Z,6.00
2023-01-02T10:30:30.699Z,6.10
2023-01-02T10:33:05.386Z,6.20
2023-01-02T10:41:47.999Z,6.50
2023-01-02T10:44:36.663Z,6.60
2023-01-02T10:57:51.135Z,7.10
2023-01-02T11:00:23.897Z,7.30
2023-01-02T11:03:10.022Z,7.40
2023-01-02T11:11:33.868Z,7.70
2023-01-02T11:16:26.741Z,7.80
2023-01-02T11:19:04.146Z,7.90
2023-01-02T11:21:39.388Z,8.00
2023-01-02T11:24:16.222Z,8.10
2023-01-02T11:26:47.151Z,8.20
2023-01-02T11:29:30.586Z,8.20
2023-01-02T11:32:02.080Z,8.30
2023-01-02T11:34:40.571Z,8.40
2023-01-02T11:37:16.698Z,8.50
2023-01-02T11:40:06.414Z,8.60
2023-01-02T11:43:09.755Z,8.70
2023-01-02T11:45:37.625Z,8.80
2023-01-02T11:48:17.240Z,8.90
2023-01-02T11:50:44.997Z,9.10
2023-01-02T11:53:36.080Z,9.20
2023-01-02T11:56:17.651Z,9.30
2023-01-02T11:59:26.898Z,9.50
2023-01-02T12:02:19.879Z,9.50
2023-01-02T12:04:47.102Z,9.70
2023-01-02T12:07:17.440Z,9.80
2023-01-02T12:10:38.919Z,10.00
2023-01-02T12:13:49.154Z,10.10
2023-01-02T12:16:56.305Z,10.30
2023-01-02T12:20:16.611Z,10.40
2023-01-02T12:23:11.352Z,10.50
2023-01-02T12:26:08.934Z,10.60
2023-01-02T12:29:46.755Z,10.70
2023-01-02T12:32:27.555Z,10.80
2023-01-02T12:35:07.464Z,11.00
2023-01-02T12:38:01.783Z,11.10
2023-01-02T12:41:00.046Z,11.20
2023-01-02T12:43:47.391Z,11.20
2023-01-02T12:46:51.976Z,11.40
2023-01-02T12:49:39.396Z,11.70
2023-01-02T12:52:21.698Z,11.80
2023-01-02T12:55:43.983Z,11.90
2023-01-02T12:58:44.080Z,11.90
2023-01-02T13:01:30.084Z,12.00
2023-01-02T13:04:20.534Z,12.10
2023-01-02T13:07:17.140Z,12.10
2023-01-02T13:09:46.034Z,12.20
2023-01-02T13:12:18.663Z,12.20
2023-01-02T13:15:02.833Z,12.30
2023-01-02T13:17:57.742Z,12.30
2023-01-02T13:20:55.783Z,12.30
2023-01-02T13:23:40.007Z,12.30
2023-01-02T13:26:15.596Z,12.30
2023-01-02T13:29:21.517Z,12.30
2023-01-02T13:31:56.613Z,12.30
2023-01-02T13:34:32.241Z,12.30
2023-01-02T13:37:13.311Z,12.30
2023-01-02T13:39:40.497Z,12.30
2023-01-02T13:42:56.074Z,12.40
2023-01-02T13:45:32.842Z,12.40
2023-01-02T13:48:04.540Z,12.40
2023-01-02T13:50:36.899Z,12.40
2023-01-02T13:53:09.940Z,12.40
2023-01-02T13:55:40.100Z,12.40
2023-01-02T13:58:18.981Z,12.40
2023-01-02T14:00:54.753Z,12.30
2023-01-02T14:03:22.862Z,12.30
2023-01-02T14:06:32.731Z,12.30
2023-01-02T14:09:10.140Z,12.30
2023-01-02T14:11:57.046Z,12.20
2023-01-02T14:14:33.456Z,12.20
2023-01-02T14:17:47.003Z,12.20
2023-01-02T14:20:26.194Z,12.20
2023-01-02T14:23:02.699Z,12.20
2023-01-02T14:25:32.609Z,12.10
2023-01-02T14:28:04.503Z,12.10
2023-01-02T14:30:40.492Z,12.10
2023-01-02T14:33:16.730Z,12.00
2023-01-02T14:35:55.233Z,12.00
2023-01-02T14:38:32.435Z,12.00
2023-01-02T14:41:19.712Z,11.90
2023-01-02T14:44:53.640Z,11.90
2023-01-02T14:47:37.022Z,11.80
2023-01-02T14:50:13.453Z,11.80
2023-01-02T14:57:59.318Z,11.60
2023-01-02T15:07:12.247Z,11.40
2023-01-02T18:13:22.115Z,7.80
2023-01-02T18:15:49.721Z,7.80
2023-01-02T18:18:17.200Z,7.70
2023-01-02T18:20:45.720Z,7.70
2023-01-02T18:23:14.958Z,7.70
2023-01-02T18:25:42.693Z,7.70
2023-01-02T18:28:26.383Z,7.60
2023-01-02T18:30:59.649Z,7.60
2023-01-02T18:33:28.350Z,7.50
2023-01-02T18:36:06.426Z,7.50
2023-01-02T18:55:14.154Z,7.30
2023-01-02T19:08:31.107Z,7.10
2023-01-02T19:10:58.863Z,7.10
2023-01-02T19:13:32.321Z,7.10
2023-01-02T19:16:19.627Z,7.00
2023-01-02T19:18:50.132Z,7.00
2023-01-02T19:21:20.511Z,7.00
2023-01-02T19:24:00.614Z,7.00
2023-01-02T19:26:40.850Z,6.90
2023-01-02T19:29:10.885Z,7.00
2023-01-02T19:32:15.121Z,6.90
2023-01-02T19:34:54.613Z,6.90
2023-01-02T19:37:47.462Z,6.90
2023-01-02T19:40:20.019Z,6.90
2023-01-02T19:42:50.217Z,6.90
2023-01-02T19:45:31.248Z,6.90
2023-01-02T19:47:58.460Z,6.90
2023-01-02T19:50:27.307Z,6.90
2023-01-02T19:52:55.139Z,6.90
2023-01-02T19:55:23.757Z,6.90
2023-01-02T22:55:35.108Z,6.20
2023-01-02T22:58:33.889Z,6.20
2023-01-02T23:01:13.245Z,6.20
2023-01-02T23:03:43.025Z,6.20
